createdAt,value
2023-06-19T00:02:37.719Z,18.77
2023-06-19T00:06:37.914Z,18.70
2023-06-19T00:10:37.847Z,18.69
2023-06-19T00:14:37.627Z,18.64
2023-06-19T00:18:40.044Z,18.56
2023-06-19T00:22:37.672Z,18.48
2023-06-19T00:26:38.186Z,18.46
2023-06-19T00:30:37.854Z,18.35
2023-06-19T00:38:38.131Z,18.34
2023-06-19T00:42:37.742Z,18.31
2023-06-19T00:46:40.171Z,18.32
2023-06-19T00:50:37.879Z,18.35
2023-06-19T00:54:38.112Z,18.37
2023-06-19T00:58:38.784Z,18.33
2023-06-19T01:02:38.666Z,18.29
2023-06-19T01:06:45.016Z,18.23
2023-06-19T01:10:42.049Z,18.18
2023-06-19T01:14:46.410Z,18.17
2023-06-19T01:18:38.558Z,18.13
2023-06-19T01:22:38.103Z,18.10
2023-06-19T01:26:37.985Z,18.08
2023-06-19T01:30:41.766Z,18.11
2023-06-19T01:34:40.914Z,18.13
2023-06-19T01:38:39.839Z,18.15
2023-06-19T01:42:40.055Z,18.05
2023-06-19T01:46:38.060Z,18.01
2023-06-19T01:50:37.993Z,18.00
2023-06-19T01:54:37.862Z,18.02
2023-06-19T01:58:37.987Z,18.01
2023-06-19T02:02:37.925Z,18.04
2023-06-19T02:06:38.089Z,18.05
2023-06-19T02:10:37.951Z,18.04
2023-06-19T02:14:38.098Z,18.02
2023-06-19T02:18:37.964Z,17.96
2023-06-19T02:22:38.180Z,17.94
2023-06-19T02:26:38.188Z,17.92
2023-06-19T02:30:38.114Z,17.90
2023-06-19T02:34:37.943Z,17.87
2023-06-19T02:38:38.212Z,17.88
2023-06-19T02:42:38.041Z,17.85
2023-06-19T02:46:38.292Z,17.80
2023-06-19T02:50:38.293Z,17.78
2023-06-19T02:54:38.204Z,17.80
2023-06-19T02:58:38.645Z,17.81
2023-06-19T03:02:41.922Z,17.80
2023-06-19T03:10:38.251Z,17.78
2023-06-19T03:14:38.126Z,17.77
2023-06-19T03:18:38.360Z,17.78
2023-06-19T03:22:39.192Z,17.76
2023-06-19T03:26:38.474Z,17.73
2023-06-19T03:30:38.147Z,17.70
2023-06-19T03:34:38.292Z,17.67
2023-06-19T03:38:38.315Z,17.61
2023-06-19T03:42:38.323Z,17.52
2023-06-19T03:46:38.195Z,17.43
2023-06-19T03:50:38.835Z,17.34
2023-06-19T03:54:38.237Z,17.23
2023-06-19T03:58:38.409Z,17.13
2023-06-19T04:02:38.302Z,17.02
2023-06-19T04:06:38.340Z,17.00
2023-06-19T04:10:38.272Z,16.97
2023-06-19T04:14:38.326Z,16.91
2023-06-19T04:18:38.328Z,16.83
2023-06-19T04:22:39.044Z,16.80
2023-06-19T04:26:38.330Z,16.73
2023-06-19T04:30:39.643Z,16.72
2023-06-19T04:34:38.788Z,16.63
2023-06-19T04:38:38.579Z,16.58
2023-06-19T04:42:38.818Z,16.53
2023-06-19T04:46:38.924Z,16.50
2023-06-19T04:50:38.527Z,16.53
2023-06-19T04:54:38.799Z,16.55
2023-06-19T04:58:44.086Z,16.59
2023-06-19T05:02:38.740Z,16.62
2023-06-19T05:06:38.392Z,16.60
2023-06-19T05:10:38.538Z,16.53
2023-06-19T05:14:51.948Z,16.49
2023-06-19T05:18:38.695Z,16.51
2023-06-19T05:22:38.523Z,16.49
2023-06-19T05:26:38.643Z,16.47
2023-06-19T05:30:38.472Z,16.51
2023-06-19T05:34:38.653Z,16.57
2023-06-19T05:38:38.542Z,16.62
2023-06-19T05:42:39.718Z,16.65
2023-06-19T05:46:38.496Z,16.67
2023-06-19T06:02:38.783Z,16.65
2023-06-19T06:06:38.561Z,16.72
2023-06-19T06:10:38.788Z,16.78
2023-06-19T06:14:40.166Z,16.79
2023-06-19T06:18:38.820Z,16.87
2023-06-19T06:22:39.026Z,16.94
2023-06-19T06:26:38.839Z,17.00
2023-06-19T06:30:58.043Z,17.11
2023-06-19T06:34:39.033Z,17.17
2023-06-19T06:38:38.779Z,17.23
2023-06-19T06:42:39.056Z,17.17
2023-06-19T06:46:38.822Z,17.16
2023-06-19T06:50:38.767Z,17.20
2023-06-19T06:54:38.809Z,17.15
2023-06-19T06:58:39.297Z,17.11
2023-06-19T07:02:39.939Z,17.08
2023-06-19T07:06:38.860Z,17.11
2023-06-19T07:10:38.857Z,17.15
2023-06-19T07:14:38.819Z,17.17
2023-06-19T07:18:40.901Z,17.23
2023-06-19T07:22:39.777Z,17.30
2023-06-19T07:26:38.887Z,17.38
2023-06-19T07:30:39.292Z,17.46
2023-06-19T07:34:38.925Z,17.54
2023-06-19T07:38:38.949Z,17.59
2023-06-19T07:42:39.085Z,17.70
2023-06-19T07:46:39.296Z,17.80
2023-06-19T07:50:38.869Z,17.95
2023-06-19T07:54:48.265Z,18.11
2023-06-19T07:58:38.910Z,18.31
2023-06-19T08:02:40.051Z,18.42
2023-06-19T08:06:38.975Z,18.54
2023-06-19T08:10:39.310Z,18.60
2023-06-19T08:14:38.946Z,18.68
2023-06-19T08:18:39.023Z,18.76
2023-06-19T08:22:38.986Z,18.87
2023-06-19T08:26:39.318Z,19.05
2023-06-19T08:30:38.968Z,19.21
2023-06-19T08:34:39.369Z,19.31
2023-06-19T08:38:39.031Z,19.40
2023-06-19T08:42:39.850Z,19.43
2023-06-19T08:46:40.354Z,19.49
2023-06-19T08:50:39.283Z,19.60
2023-06-19T08:54:43.848Z,19.76
2023-06-19T08:58:39.182Z,19.91
2023-06-19T09:02:42.188Z,20.00
2023-06-19T09:06:48.027Z,19.99
2023-06-19T09:10:39.105Z,19.95
2023-06-19T09:14:40.733Z,19.96
2023-06-19T09:18:44.648Z,20.00
2023-06-19T09:22:39.655Z,20.12
2023-06-19T09:26:40.196Z,20.29
2023-06-19T09:30:53.571Z,20.40
2023-06-19T09:34:39.977Z,20.45
2023-06-19T09:38:41.147Z,20.49
2023-06-19T09:42:42.601Z,20.52
2023-06-19T09:46:45.594Z,20.66
2023-06-19T09:50:40.304Z,20.76
2023-06-19T09:54:41.423Z,20.73
2023-06-19T10:00:38.513Z,20.78
2023-06-19T10:02:40.859Z,20.90
2023-06-19T10:06:44.060Z,20.84
2023-06-19T10:10:47.455Z,20.79
2023-06-19T10:14:47.206Z,20.83
2023-06-19T10:22:53.207Z,20.80
2023-06-19T10:26:39.433Z,20.83
2023-06-19T10:30:39.490Z,20.75
2023-06-19T10:34:39.491Z,20.65
2023-06-19T10:38:39.884Z,20.63
2023-06-19T10:42:40.297Z,20.75
2023-06-19T10:46:40.399Z,21.03
2023-06-19T10:50:42.541Z,21.26
2023-06-19T10:54:39.571Z,21.43
2023-06-19T10:58:39.558Z,21.51
2023-06-19T11:02:43.129Z,21.64
2023-06-19T11:06:40.742Z,21.79
2023-06-19T11:11:40.476Z,21.93
2023-06-19T11:14:40.196Z,22.10
2023-06-19T11:18:39.805Z,22.26
2023-06-19T11:21:57.767Z,22.26
2023-06-19T11:22:41.345Z,22.47
2023-06-19T11:26:43.939Z,22.51
2023-06-19T11:30:40.655Z,22.38
2023-06-19T11:34:39.895Z,22.25
2023-06-19T11:38:41.141Z,22.18
2023-06-19T11:42:53.197Z,22.09
2023-06-19T11:46:39.830Z,22.06
2023-06-19T11:50:39.860Z,22.12
2023-06-19T11:54:39.617Z,22.17
2023-06-19T11:58:39.722Z,22.18
2023-06-19T12:02:39.814Z,22.17
2023-06-19T12:06:39.712Z,22.18
2023-06-19T12:10:39.652Z,22.04
2023-06-19T12:14:39.988Z,21.89
2023-06-19T12:22:40.456Z,21.95
2023-06-19T12:26:40.040Z,22.08
2023-06-19T12:30:39.899Z,22.40
2023-06-19T12:34:40.362Z,22.49
2023-06-19T12:38:40.501Z,22.65
2023-06-19T12:42:40.039Z,23.10
2023-06-19T12:46:40.037Z,23.42
2023-06-19T12:50:39.793Z,23.56
2023-06-19T12:54:42.229Z,23.67
2023-06-19T12:58:39.827Z,23.66
2023-06-19T13:02:40.184Z,23.68
2023-06-19T13:06:39.967Z,23.66
2023-06-19T13:10:40.641Z,23.72
2023-06-19T13:14:39.935Z,24.00
2023-06-19T13:18:39.956Z,23.98
2023-06-19T13:22:40.217Z,24.07
2023-06-19T13:26:40.338Z,24.23
2023-06-19T13:30:39.899Z,24.27
2023-06-19T13:34:40.227Z,24.23
2023-06-19T13:38:41.523Z,24.24
2023-06-19T13:42:40.075Z,24.32
2023-06-19T13:46:40.284Z,24.51
2023-06-19T13:50:40.321Z,24.71
2023-06-19T13:54:39.984Z,24.64
2023-06-19T13:58:40.202Z,24.46
2023-06-19T14:02:40.863Z,24.36
2023-06-19T14:06:42.642Z,24.39
2023-06-19T14:10:40.385Z,24.66
2023-06-19T14:14:40.220Z,24.63
2023-06-19T14:18:40.025Z,24.55
2023-06-19T14:22:40.393Z,24.44
2023-06-19T14:26:40.226Z,24.30
2023-06-19T14:30:40.438Z,24.44
2023-06-19T14:34:40.056Z,24.82
2023-06-19T14:38:40.167Z,25.17
2023-06-19T14:42:40.442Z,25.34
2023-06-19T14:46:40.548Z,25.47
2023-06-19T14:50:40.328Z,25.57
2023-06-19T14:54:40.238Z,25.72
2023-06-19T14:58:40.181Z,25.94
2023-06-19T15:02:41.495Z,26.14
2023-06-19T15:06:40.338Z,26.21
2023-06-19T15:10:40.437Z,26.34
2023-06-19T15:14:41.181Z,26.42
2023-06-19T15:18:41.336Z,26.56
2023-06-19T15:22:40.172Z,26.59
2023-06-19T15:26:40.554Z,26.61
2023-06-19T15:30:40.232Z,26.62
2023-06-19T15:34:41.068Z,26.71
2023-06-19T15:38:40.536Z,26.49
2023-06-19T15:42:40.409Z,26.48
2023-06-19T15:46:40.339Z,26.52
2023-06-19T15:50:40.646Z,26.62
2023-06-19T15:54:40.282Z,26.74
2023-06-19T15:58:40.423Z,26.84
2023-06-19T16:02:43.328Z,26.90
2023-06-19T16:06:41.376Z,27.01
2023-06-19T16:10:40.437Z,27.04
2023-06-19T16:14:40.430Z,27.29
2023-06-19T16:18:40.796Z,27.34
2023-06-19T16:22:40.514Z,27.10
2023-06-19T16:26:40.550Z,27.00
2023-06-19T16:30:40.456Z,27.04
2023-06-19T16:34:40.588Z,27.23
2023-06-19T16:38:41.390Z,27.20
2023-06-19T16:42:40.473Z,26.88
2023-06-19T16:46:40.533Z,26.63
2023-06-19T16:50:40.661Z,26.62
2023-06-19T16:54:41.698Z,26.63
2023-06-19T16:58:40.575Z,26.76
2023-06-19T17:02:40.710Z,26.99
2023-06-19T17:06:40.562Z,27.16
2023-06-19T17:10:40.716Z,26.93
2023-06-19T17:14:41.521Z,26.78
2023-06-19T17:18:40.670Z,26.59
2023-06-19T17:22:40.634Z,26.39
2023-06-19T17:30:40.929Z,26.52
2023-06-19T17:34:40.613Z,26.83
2023-06-19T17:38:40.686Z,27.05
2023-06-19T17:42:41.137Z,27.18
2023-06-19T17:46:41.016Z,27.33
2023-06-19T17:50:40.697Z,27.57
2023-06-19T17:54:40.967Z,27.70
2023-06-19T17:58:40.620Z,27.85
2023-06-19T18:02:41.045Z,27.82
2023-06-19T18:06:40.739Z,27.76
2023-06-19T18:10:40.761Z,27.69
2023-06-19T18:14:40.893Z,27.68
2023-06-19T18:18:40.821Z,27.78
2023-06-19T18:22:40.947Z,27.80
2023-06-19T18:26:40.827Z,27.53
2023-06-19T18:30:40.766Z,27.42
2023-06-19T18:34:40.872Z,27.36
2023-06-19T18:38:40.782Z,27.44
2023-06-19T18:42:41.138Z,27.46
2023-06-19T18:46:41.212Z,27.34
2023-06-19T18:50:40.953Z,26.97
2023-06-19T18:54:41.141Z,26.67
2023-06-19T18:58:40.869Z,26.49
2023-06-19T19:02:40.971Z,26.28
2023-06-19T19:06:40.932Z,26.05
2023-06-19T19:10:41.908Z,25.85
2023-06-19T19:14:42.606Z,25.71
2023-06-19T19:18:41.153Z,25.59
2023-06-19T19:22:41.023Z,25.52
2023-06-19T19:26:41.869Z,25.49
2023-06-19T19:30:41.647Z,25.40
2023-06-19T19:34:40.917Z,25.28
2023-06-19T19:38:41.088Z,25.20
2023-06-19T19:42:40.950Z,25.14
2023-06-19T19:46:41.885Z,25.12
2023-06-19T19:50:41.062Z,25.07
2023-06-19T19:54:41.369Z,24.99
2023-06-19T19:58:41.057Z,24.91
2023-06-19T20:02:41.502Z,24.81
2023-06-19T20:06:41.003Z,24.73
2023-06-19T20:10:43.294Z,24.67
2023-06-19T20:14:41.154Z,24.62
2023-06-19T20:18:41.463Z,24.50
2023-06-19T20:22:41.057Z,24.41
2023-06-19T20:26:41.266Z,24.32
2023-06-19T20:30:41.559Z,24.24
2023-06-19T20:34:41.192Z,24.14
2023-06-19T20:38:41.240Z,24.07
2023-06-19T20:42:41.352Z,23.98
2023-06-19T20:46:41.137Z,23.88
2023-06-19T20:50:42.213Z,23.81
2023-06-19T20:54:41.252Z,23.72
2023-06-19T20:58:41.698Z,23.66
2023-06-19T21:02:41.419Z,23.62
2023-06-19T21:06:41.440Z,23.58
2023-06-19T21:10:43.052Z,23.52
2023-06-19T21:14:41.411Z,23.44
2023-06-19T21:18:41.243Z,23.40
2023-06-19T21:22:41.431Z,23.36
2023-06-19T21:26:41.342Z,23.32
2023-06-19T21:30:41.481Z,23.29
2023-06-19T21:34:41.411Z,23.26
2023-06-19T21:38:41.466Z,23.24
2023-06-19T21:42:41.370Z,23.17
2023-06-19T21:46:41.608Z,23.11
2023-06-19T21:50:41.340Z,23.07
2023-06-19T21:54:41.638Z,23.03
2023-06-19T21:58:41.438Z,22.98
2023-06-19T22:02:41.621Z,22.92
2023-06-19T22:06:41.604Z,22.87
2023-06-19T22:10:41.611Z,22.85
2023-06-19T22:14:41.617Z,22.83
2023-06-19T22:18:41.470Z,22.75
2023-06-19T22:22:41.618Z,22.71
2023-06-19T22:26:41.498Z,22.69
2023-06-19T22:30:41.487Z,22.70
2023-06-19T22:34:41.630Z,22.65
2023-06-19T22:38:41.654Z,22.63
2023-06-19T22:42:41.664Z,22.61
2023-06-19T22:46:41.496Z,22.59
2023-06-19T22:50:41.644Z,22.58
2023-06-19T22:54:41.569Z,22.56
2023-06-19T22:58:42.155Z,22.55
2023-06-19T23:02:42.548Z,22.50
2023-06-19T23:06:42.743Z,22.43
2023-06-19T23:10:42.041Z,22.34
2023-06-19T23:14:41.605Z,22.29
2023-06-19T23:18:41.638Z,22.26
2023-06-19T23:22:41.596Z,22.24
2023-06-19T23:26:41.774Z,22.21
2023-06-19T23:30:41.610Z,22.11
2023-06-19T23:34:41.757Z,22.07
2023-06-19T23:38:41.691Z,22.04
2023-06-19T23:46:41.819Z,22.05
2023-06-19T23:58:41.967Z,22.03
